createdAt,value
2019-05-22T00:02:38.812Z,17.53
2019-05-22T00:05:41.559Z,22.07
2019-05-22T00:08:44.979Z,19.93
2019-05-22T00:11:48.668Z,23.03
2019-05-22T00:14:52.351Z,19.43
2019-05-22T00:17:55.753Z,21.67
2019-05-22T00:20:59.727Z,19.70
2019-05-22T00:24:03.466Z,21.73
2019-05-22T00:27:06.101Z,20.63
2019-05-22T00:30:09.913Z,20.17
2019-05-22T00:33:11.865Z,23.50
2019-05-22T00:36:14.312Z,19.57
2019-05-22T00:39:18.618Z,20.50
2019-05-22T00:42:20.556Z,19.20
2019-05-22T00:45:24.274Z,20.70
2019-05-22T00:48:26.311Z,18.40
2019-05-22T00:51:36.041Z,18.07
2019-05-22T00:54:45.989Z,17.83
2019-05-22T00:57:53.157Z,20.23
2019-05-22T01:00:56.829Z,17.87
2019-05-22T01:03:58.862Z,19.13
2019-05-22T01:07:06.465Z,19.83
2019-05-22T01:10:11.149Z,20.33
2019-05-22T01:13:14.938Z,18.03
2019-05-22T01:16:17.047Z,18.97
2019-05-22T01:19:19.534Z,18.90
2019-05-22T01:22:23.300Z,18.90
2019-05-22T01:25:30.901Z,17.93
2019-05-22T01:28:36.405Z,22.63
2019-05-22T01:31:40.974Z,17.90
2019-05-22T01:34:43.368Z,23.07
2019-05-22T01:37:45.972Z,17.97
2019-05-22T01:41:00.854Z,21.53
2019-05-22T01:44:05.148Z,18.63
2019-05-22T01:47:12.469Z,23.00
2019-05-22T01:50:37.927Z,19.63
2019-05-22T01:53:44.048Z,18.57
2019-05-22T01:56:45.991Z,18.67
2019-05-22T01:59:49.949Z,18.53
2019-05-22T02:02:51.988Z,18.57
2019-05-22T02:05:54.624Z,18.77
2019-05-22T02:09:05.081Z,21.33
2019-05-22T02:12:15.077Z,23.90
2019-05-22T02:15:18.467Z,18.70
2019-05-22T02:18:22.815Z,18.00
2019-05-22T02:21:26.420Z,20.60
2019-05-22T02:24:30.236Z,20.37
2019-05-22T02:27:33.859Z,19.17
2019-05-22T02:30:37.783Z,16.67
2019-05-22T02:33:58.190Z,18.10
2019-05-22T02:37:00.591Z,17.53
2019-05-22T02:40:08.657Z,24.00
2019-05-22T02:43:11.201Z,19.30
2019-05-22T02:46:13.912Z,21.53
2019-05-22T02:49:16.974Z,18.53
2019-05-22T02:52:23.909Z,19.57
2019-05-22T02:55:26.580Z,19.70
2019-05-22T02:58:31.272Z,20.70
2019-05-22T03:01:33.940Z,22.37
2019-05-22T03:04:58.261Z,22.00
2019-05-22T03:08:00.939Z,21.93
2019-05-22T03:11:03.618Z,23.37
2019-05-22T03:14:08.823Z,29.13
2019-05-22T03:17:27.516Z,20.80
2019-05-22T03:20:31.778Z,25.23
2019-05-22T03:23:36.602Z,23.40
2019-05-22T03:26:46.475Z,23.13
2019-05-22T03:29:56.130Z,25.33
2019-05-22T03:33:00.601Z,25.13
2019-05-22T03:36:09.223Z,26.87
2019-05-22T03:39:13.355Z,25.87
2019-05-22T03:42:16.580Z,25.60
2019-05-22T03:45:18.754Z,27.23
2019-05-22T03:48:23.303Z,26.83
2019-05-22T03:51:25.834Z,26.03
2019-05-22T03:54:27.942Z,28.00
2019-05-22T03:57:30.365Z,29.13
2019-05-22T04:00:33.108Z,24.93
2019-05-22T04:03:35.836Z,25.60
2019-05-22T04:06:39.817Z,26.67
2019-05-22T04:09:42.553Z,33.53
2019-05-22T04:12:44.818Z,38.50
2019-05-22T04:15:47.377Z,28.97
2019-05-22T04:18:49.498Z,34.53
2019-05-22T04:21:51.538Z,35.20
2019-05-22T04:24:53.443Z,25.30
2019-05-22T04:27:56.261Z,25.73
2019-05-22T04:31:00.229Z,28.83
2019-05-22T04:34:02.233Z,23.27
2019-05-22T04:37:05.109Z,25.70
2019-05-22T04:40:23.927Z,31.23
2019-05-22T04:43:29.931Z,30.33
2019-05-22T04:46:34.394Z,29.63
2019-05-22T04:49:37.125Z,27.60
2019-05-22T04:52:39.023Z,28.43
2019-05-22T04:55:41.097Z,21.27
2019-05-22T04:58:43.258Z,24.97
2019-05-22T05:01:45.794Z,20.97
2019-05-22T05:04:49.142Z,24.90
2019-05-22T05:07:51.780Z,20.50
2019-05-22T05:10:55.405Z,23.17
2019-05-22T05:13:57.939Z,20.20
2019-05-22T05:17:00.302Z,16.53
2019-05-22T05:20:05.496Z,14.37
2019-05-22T05:23:07.479Z,15.07
2019-05-22T05:26:09.496Z,12.80
2019-05-22T05:29:17.707Z,12.67
2019-05-22T05:32:19.699Z,13.43
2019-05-22T05:35:22.362Z,12.97
2019-05-22T05:38:34.109Z,12.50
2019-05-22T05:41:36.062Z,12.57
2019-05-22T05:44:37.992Z,14.57
2019-05-22T05:47:40.718Z,13.20
2019-05-22T05:51:06.687Z,11.70
2019-05-22T05:54:12.143Z,14.73
2019-05-22T05:57:37.056Z,8.33
2019-05-22T06:00:44.456Z,8.63
2019-05-22T06:03:44.737Z,8.73
2019-05-22T06:06:54.575Z,10.73
2019-05-22T06:10:17.358Z,11.73
2019-05-22T06:13:19.878Z,7.10
2019-05-22T06:16:26.226Z,8.40
2019-05-22T06:19:30.062Z,6.40
2019-05-22T06:22:32.181Z,12.80
2019-05-22T06:25:35.844Z,6.57
2019-05-22T06:28:41.983Z,7.23
2019-05-22T06:31:47.657Z,6.90
2019-05-22T06:34:51.008Z,7.50
2019-05-22T06:38:11.908Z,7.40
2019-05-22T06:41:13.912Z,6.80
2019-05-22T06:44:28.543Z,7.20
2019-05-22T06:47:32.156Z,8.43
2019-05-22T06:50:34.263Z,6.70
2019-05-22T06:53:36.204Z,6.87
2019-05-22T06:56:38.156Z,6.60
2019-05-22T06:59:40.555Z,6.33
2019-05-22T07:02:43.163Z,7.00
2019-05-22T07:05:45.923Z,7.13
2019-05-22T07:08:48.272Z,7.50
2019-05-22T07:11:50.703Z,6.47
2019-05-22T07:15:04.116Z,7.70
2019-05-22T07:18:12.248Z,6.63
2019-05-22T07:21:12.615Z,7.40
2019-05-22T07:24:14.941Z,6.60
2019-05-22T07:27:23.710Z,7.03
2019-05-22T07:30:26.096Z,6.97
2019-05-22T07:33:28.421Z,6.40
2019-05-22T07:36:32.547Z,6.30
2019-05-22T07:39:34.536Z,8.10
2019-05-22T07:42:37.165Z,6.10
2019-05-22T07:45:40.840Z,10.17
2019-05-22T07:48:43.627Z,5.80
2019-05-22T07:51:56.144Z,6.63
2019-05-22T07:54:51.706Z,6.07
2019-05-22T07:58:00.139Z,6.90
2019-05-22T08:01:03.140Z,8.67
2019-05-22T08:04:05.303Z,5.60
2019-05-22T08:07:08.626Z,5.40
2019-05-22T08:10:13.293Z,6.10
2019-05-22T08:13:15.940Z,6.30
2019-05-22T08:16:18.943Z,5.90
2019-05-22T08:19:22.545Z,5.40
2019-05-22T08:22:24.938Z,5.73
2019-05-22T08:25:27.070Z,5.40
2019-05-22T08:28:31.469Z,5.10
2019-05-22T08:31:34.181Z,6.00
2019-05-22T08:34:36.517Z,5.27
2019-05-22T08:37:39.940Z,5.40
2019-05-22T08:40:44.882Z,6.60
2019-05-22T08:44:12.048Z,5.60
2019-05-22T08:46:51.312Z,5.53
2019-05-22T08:49:53.578Z,5.73
2019-05-22T08:52:55.734Z,5.90
2019-05-22T08:55:58.422Z,5.90
2019-05-22T08:59:18.326Z,5.90
2019-05-22T09:02:05.700Z,5.43
2019-05-22T09:05:09.579Z,5.97
2019-05-22T09:08:12.786Z,6.03
2019-05-22T09:11:14.859Z,5.63
2019-05-22T09:14:18.294Z,4.93
2019-05-22T09:17:21.511Z,5.27
2019-05-22T09:20:24.096Z,5.10
2019-05-22T09:23:26.142Z,5.30
2019-05-22T09:26:29.256Z,5.47
2019-05-22T09:29:31.336Z,7.17
2019-05-22T09:32:33.436Z,5.80
2019-05-22T09:35:35.498Z,5.53
2019-05-22T09:38:38.313Z,5.97
2019-05-22T09:41:40.199Z,5.63
2019-05-22T09:44:42.310Z,6.07
2019-05-22T09:47:44.180Z,7.73
2019-05-22T09:50:46.273Z,9.40
2019-05-22T09:53:48.611Z,5.17
2019-05-22T09:56:52.220Z,5.50
2019-05-22T09:59:54.225Z,5.67
2019-05-22T10:02:56.226Z,6.10
2019-05-22T10:05:58.710Z,4.93
2019-05-22T10:09:00.680Z,6.70
2019-05-22T10:12:04.289Z,5.60
2019-05-22T10:15:09.141Z,6.00
2019-05-22T10:18:11.380Z,6.73
2019-05-22T10:21:13.660Z,8.80
2019-05-22T10:24:16.445Z,6.83
2019-05-22T10:27:20.275Z,7.47
2019-05-22T10:30:24.874Z,8.87
2019-05-22T10:33:27.207Z,11.17
2019-05-22T10:36:29.649Z,8.67
2019-05-22T10:39:32.275Z,10.83
2019-05-22T10:42:34.183Z,10.50
2019-05-22T10:45:36.829Z,11.43
2019-05-22T10:48:40.361Z,15.00
2019-05-22T10:51:42.674Z,14.40
2019-05-22T10:54:45.497Z,13.73
2019-05-22T10:57:47.439Z,13.07
2019-05-22T11:00:50.252Z,16.67
2019-05-22T11:03:53.069Z,15.83
2019-05-22T11:06:55.536Z,19.23
2019-05-22T11:09:57.636Z,13.63
2019-05-22T11:12:59.622Z,14.47
2019-05-22T11:16:02.237Z,15.47
2019-05-22T11:19:05.382Z,14.17
2019-05-22T11:22:09.382Z,17.80
2019-05-22T11:25:14.423Z,14.97
2019-05-22T11:28:16.355Z,16.73
2019-05-22T11:31:18.390Z,17.17
2019-05-22T11:34:20.322Z,18.33
2019-05-22T11:37:22.358Z,19.83
2019-05-22T11:40:25.741Z,14.23
2019-05-22T11:43:28.471Z,16.60
2019-05-22T11:46:30.520Z,15.60
2019-05-22T11:49:32.994Z,14.20
2019-05-22T11:52:35.789Z,13.73
2019-05-22T11:55:44.949Z,11.73
2019-05-22T11:58:42.231Z,13.37
2019-05-22T12:01:44.257Z,13.93
2019-05-22T12:04:48.979Z,13.43
2019-05-22T12:07:52.479Z,11.20
2019-05-22T12:10:55.496Z,9.70
2019-05-22T12:13:57.781Z,10.53
2019-05-22T12:16:59.719Z,13.63
2019-05-22T12:20:04.337Z,4.57
2019-05-22T12:23:06.627Z,1.60
2019-05-22T12:26:08.750Z,2.47
2019-05-22T12:29:10.620Z,2.70
2019-05-22T12:32:12.635Z,1.70
2019-05-22T12:35:15.205Z,1.77
2019-05-22T12:38:18.422Z,1.50
2019-05-22T12:41:21.595Z,1.90
2019-05-22T12:44:25.188Z,1.70
2019-05-22T12:47:27.326Z,1.97
2019-05-22T12:50:31.342Z,4.20
2019-05-22T12:53:35.500Z,2.00
2019-05-22T12:56:37.421Z,2.03
2019-05-22T12:59:40.308Z,1.97
2019-05-22T13:02:43.251Z,2.03
2019-05-22T13:05:46.685Z,2.20
2019-05-22T13:08:49.071Z,2.70
2019-05-22T13:11:51.153Z,2.50
2019-05-22T13:15:08.498Z,2.30
2019-05-22T13:17:59.477Z,2.97
2019-05-22T13:21:02.603Z,3.10
2019-05-22T13:24:18.724Z,3.50
2019-05-22T13:27:23.118Z,3.00
2019-05-22T13:30:28.472Z,2.67
2019-05-22T13:33:31.296Z,3.53
2019-05-22T13:36:36.012Z,2.60
2019-05-22T13:39:38.664Z,3.03
2019-05-22T13:42:43.098Z,2.60
2019-05-22T13:45:45.422Z,4.67
2019-05-22T13:48:47.761Z,2.60
2019-05-22T13:51:50.720Z,2.70
2019-05-22T13:54:52.748Z,2.93
2019-05-22T13:57:54.905Z,3.27
2019-05-22T14:00:57.227Z,3.30
2019-05-22T14:04:03.111Z,4.63
2019-05-22T14:07:05.762Z,4.10
2019-05-22T14:10:09.517Z,4.47
2019-05-22T14:13:12.137Z,5.23
2019-05-22T14:16:14.528Z,5.17
2019-05-22T14:19:16.579Z,4.13
2019-05-22T14:22:18.653Z,4.03
2019-05-22T14:25:24.467Z,4.93
2019-05-22T14:28:28.833Z,4.07
2019-05-22T14:31:33.323Z,4.27
2019-05-22T14:34:39.075Z,4.60
2019-05-22T14:37:42.804Z,5.37
2019-05-22T14:40:44.876Z,4.27
2019-05-22T14:43:46.856Z,4.33
2019-05-22T14:46:49.024Z,3.10
2019-05-22T14:49:52.148Z,4.37
2019-05-22T14:52:56.631Z,5.27
2019-05-22T14:55:59.337Z,3.90
2019-05-22T14:59:01.825Z,3.90
2019-05-22T15:02:03.745Z,4.73
2019-05-22T15:05:07.585Z,4.37
2019-05-22T15:08:10.271Z,3.93
2019-05-22T15:11:14.645Z,3.93
2019-05-22T15:14:18.393Z,4.27
2019-05-22T15:17:31.589Z,3.80
2019-05-22T15:20:27.888Z,4.10
2019-05-22T15:23:31.996Z,5.97
2019-05-22T15:26:36.418Z,4.43
2019-05-22T15:29:39.943Z,6.60
2019-05-22T15:32:42.739Z,6.67
2019-05-22T15:35:45.914Z,3.50
2019-05-22T15:38:49.468Z,5.13
2019-05-22T15:41:53.547Z,5.43
2019-05-22T15:44:55.790Z,4.97
2019-05-22T15:48:01.508Z,5.63
2019-05-22T15:51:05.384Z,4.27
2019-05-22T15:54:07.729Z,4.13
2019-05-22T15:57:12.356Z,6.03
2019-05-22T16:00:16.461Z,4.63
2019-05-22T16:03:20.570Z,4.73
2019-05-22T16:06:27.885Z,5.03
2019-05-22T16:09:31.028Z,5.23
2019-05-22T16:12:33.124Z,5.93
2019-05-22T16:15:36.027Z,8.70
2019-05-22T16:18:40.998Z,6.73
2019-05-22T16:21:46.070Z,6.17
2019-05-22T16:24:50.522Z,5.87
2019-05-22T16:27:53.592Z,8.20
2019-05-22T16:30:58.697Z,11.77
2019-05-22T16:34:01.295Z,7.17
2019-05-22T16:37:04.143Z,12.77
2019-05-22T16:40:10.709Z,17.93
2019-05-22T16:43:14.889Z,5.00
2019-05-22T16:46:18.596Z,6.40
2019-05-22T16:49:24.030Z,6.87
2019-05-22T16:52:30.790Z,5.03
2019-05-22T16:55:37.497Z,7.50
2019-05-22T16:58:41.790Z,8.40
2019-05-22T17:01:58.815Z,5.37
2019-05-22T17:04:51.586Z,11.50
2019-05-22T17:07:55.997Z,8.83
2019-05-22T17:11:01.068Z,6.20
2019-05-22T17:14:06.257Z,5.73
2019-05-22T17:17:11.479Z,8.67
2019-05-22T17:20:20.078Z,5.10
2019-05-22T17:23:25.273Z,5.10
2019-05-22T17:26:30.943Z,5.03
2019-05-22T17:29:33.987Z,7.23
2019-05-22T17:32:36.331Z,8.17
2019-05-22T17:35:43.566Z,5.80
2019-05-22T17:38:45.568Z,7.00
2019-05-22T17:41:48.516Z,7.77
2019-05-22T17:44:51.064Z,4.90
2019-05-22T17:47:54.971Z,6.17
2019-05-22T17:51:00.167Z,4.23
2019-05-22T17:54:02.183Z,5.07
2019-05-22T17:57:07.551Z,6.47
2019-05-22T18:00:12.847Z,6.50
2019-05-22T18:03:15.005Z,6.03
2019-05-22T18:06:16.872Z,21.23
2019-05-22T18:09:19.159Z,80.43
2019-05-22T18:12:22.937Z,88.47
2019-05-22T18:15:26.386Z,39.67
2019-05-22T18:18:28.840Z,34.43
2019-05-22T18:21:33.430Z,14.13
2019-05-22T18:24:35.786Z,9.20
2019-05-22T18:27:42.248Z,8.87
2019-05-22T18:30:46.031Z,6.77
2019-05-22T18:33:47.963Z,8.70
2019-05-22T18:36:53.567Z,4.80
2019-05-22T18:39:56.019Z,6.57
2019-05-22T18:43:00.368Z,6.13
2019-05-22T18:46:02.495Z,6.97
2019-05-22T18:49:04.685Z,7.17
2019-05-22T18:52:08.189Z,6.13
2019-05-22T18:55:10.098Z,7.07
2019-05-22T18:58:12.538Z,4.80
2019-05-22T19:01:16.411Z,6.10
2019-05-22T19:04:18.969Z,15.47
2019-05-22T19:07:22.130Z,5.23
2019-05-22T19:10:25.704Z,7.03
2019-05-22T19:13:27.580Z,10.10
2019-05-22T19:16:32.349Z,6.47
2019-05-22T19:19:35.217Z,3.77
2019-05-22T19:22:39.567Z,5.50
2019-05-22T19:25:41.858Z,5.83
2019-05-22T19:28:45.257Z,6.10
2019-05-22T19:31:49.105Z,4.07
2019-05-22T19:34:51.040Z,7.23
2019-05-22T19:37:54.372Z,5.60
2019-05-22T19:40:58.087Z,7.50
2019-05-22T19:44:01.849Z,9.83
2019-05-22T19:47:06.574Z,6.67
2019-05-22T19:50:22.352Z,5.83
2019-05-22T19:53:19.321Z,5.23
2019-05-22T19:56:22.899Z,3.87
2019-05-22T19:59:24.076Z,6.23
2019-05-22T20:02:26.227Z,5.30
2019-05-22T20:05:29.220Z,5.47
2019-05-22T20:08:31.783Z,5.33
2019-05-22T20:11:33.808Z,8.70
2019-05-22T20:14:38.401Z,5.07
2019-05-22T20:17:42.132Z,7.43
2019-05-22T20:20:44.901Z,5.40
2019-05-22T20:23:47.178Z,3.93
2019-05-22T20:26:49.393Z,4.83
2019-05-22T20:29:53.178Z,5.27
2019-05-22T20:32:57.303Z,4.13
2019-05-22T20:35:59.549Z,5.07
2019-05-22T20:39:01.560Z,3.93
2019-05-22T20:42:06.410Z,6.77
2019-05-22T20:45:10.268Z,5.10
2019-05-22T20:48:23.315Z,4.97
2019-05-22T20:51:26.521Z,5.33
2019-05-22T20:54:30.066Z,8.17
2019-05-22T20:57:33.473Z,6.40
2019-05-22T21:00:36.310Z,6.20
2019-05-22T21:03:38.544Z,10.53
2019-05-22T21:06:48.006Z,4.37
2019-05-22T21:09:50.033Z,8.73
2019-05-22T21:12:53.273Z,5.63
2019-05-22T21:15:55.427Z,5.73
2019-05-22T21:18:57.368Z,4.20
2019-05-22T21:22:00.455Z,7.80
2019-05-22T21:25:04.113Z,5.20
2019-05-22T21:28:06.592Z,6.67
2019-05-22T21:31:09.669Z,4.93
2019-05-22T21:34:12.307Z,4.20
2019-05-22T21:37:17.516Z,4.30
2019-05-22T21:40:22.114Z,6.30
2019-05-22T21:43:24.262Z,3.70
2019-05-22T21:46:26.232Z,3.07
2019-05-22T21:49:29.237Z,3.43
2019-05-22T21:52:33.618Z,3.27
2019-05-22T21:55:36.228Z,3.97
2019-05-22T21:58:38.732Z,3.27
2019-05-22T22:01:52.390Z,2.93
2019-05-22T22:04:54.740Z,3.47
2019-05-22T22:07:57.929Z,5.43
2019-05-22T22:11:01.191Z,4.33
2019-05-22T22:14:04.581Z,3.13
2019-05-22T22:17:08.415Z,3.40
2019-05-22T22:20:11.293Z,2.90
2019-05-22T22:23:14.996Z,5.07
2019-05-22T22:26:25.417Z,4.60
2019-05-22T22:29:21.555Z,3.10
2019-05-22T22:32:25.424Z,4.03
2019-05-22T22:35:27.547Z,4.13
2019-05-22T22:38:32.505Z,3.73
2019-05-22T22:41:34.814Z,7.10
2019-05-22T22:44:38.266Z,3.83
2019-05-22T22:47:44.957Z,4.40
2019-05-22T22:50:47.330Z,11.00
2019-05-22T22:53:49.937Z,3.90
2019-05-22T22:56:52.501Z,4.33
2019-05-22T22:59:55.015Z,4.40
2019-05-22T23:02:58.168Z,3.67
2019-05-22T23:06:00.282Z,4.80
2019-05-22T23:09:03.958Z,5.23
2019-05-22T23:12:07.581Z,4.30
2019-05-22T23:15:13.061Z,14.57
2019-05-22T23:18:31.220Z,5.63
2019-05-22T23:21:33.057Z,4.23
2019-05-22T23:24:38.041Z,7.10
2019-05-22T23:27:40.061Z,4.57
2019-05-22T23:30:42.093Z,3.30
2019-05-22T23:33:45.763Z,3.93
2019-05-22T23:36:48.142Z,3.73
2019-05-22T23:39:52.547Z,5.83
2019-05-22T23:42:56.447Z,3.97
2019-05-22T23:45:58.460Z,6.60
2019-05-22T23:49:00.539Z,4.00
2019-05-22T23:52:04.058Z,3.03
2019-05-22T23:55:09.343Z,5.27
2019-05-22T23:58:12.501Z,3.97
